Time;durP1;ratioP1;P1;durP2;ratioP2;P2;SDS_P1;SDS_P2;PMS_P1;PMS_P2;Temp;Humidity;BMP_temperature;BMP_pressure;BME280_temperature;BME280_humidity;BME280_pressure;Samples;Min_cycle;Max_cycle;Signal;HPM_P1;HPM_P2
2022/06/22 00:00:43;;;;;;;5.80;3.10;;;;;;;;;;5034294;28;20556;-74
2022/06/22 00:03:12;;;;;;;6.90;3.73;;;;;;;;;;5036684;28;20460;-75
2022/06/22 00:05:47;;;;;;;4.30;3.20;;;;;;;;;;5041360;28;20561;-75
2022/06/22 00:08:17;;;;;;;8.90;3.77;;;;;;;;;;5037247;28;20469;-75
2022/06/22 00:10:50;;;;;;;8.10;3.30;;;;;;;;;;5037077;28;20462;-75
2022/06/22 00:13:20;;;;;;;7.47;3.10;;;;;;;;;;5038488;28;20493;-74
2022/06/22 00:15:49;;;;;;;4.47;3.43;;;;;;;;;;5057082;28;21188;-74
2022/06/22 00:18:29;;;;;;;3.67;3.20;;;;;;;;;;5056572;28;20898;-74
2022/06/22 00:21:00;;;;;;;4.03;3.57;;;;;;;;;;5042613;28;20545;-74
2022/06/22 00:23:29;;;;;;;8.10;4.50;;;;;;;;;;5049926;28;20504;-73
2022/06/22 00:26:07;;;;;;;4.60;3.33;;;;;;;;;;5057380;28;20560;-75
2022/06/22 00:28:53;;;;;;;4.40;3.43;;;;;;;;;;5056865;28;20457;-74
2022/06/22 00:31:26;;;;;;;5.93;3.93;;;;;;;;;;5047182;28;20506;-74
2022/06/22 00:34:04;;;;;;;5.13;3.57;;;;;;;;;;5037446;28;20454;-74
2022/06/22 00:36:37;;;;;;;14.80;5.43;;;;;;;;;;5056656;28;20512;-73
2022/06/22 00:39:18;;;;;;;9.30;3.80;;;;;;;;;;5038854;28;20450;-74
2022/06/22 00:41:48;;;;;;;5.80;4.30;;;;;;;;;;5036669;28;21197;-74
2022/06/22 00:44:16;;;;;;;9.00;4.10;;;;;;;;;;5036082;28;20470;-74
2022/06/22 00:46:45;;;;;;;4.10;3.70;;;;;;;;;;5037160;28;20597;-74
2022/06/22 00:49:17;;;;;;;10.33;4.10;;;;;;;;;;5056481;28;20540;-74
2022/06/22 00:51:53;;;;;;;5.07;3.90;;;;;;;;;;5056637;28;20481;-74
2022/06/22 00:54:26;;;;;;;5.40;3.60;;;;;;;;;;5052587;28;20465;-74
2022/06/22 00:56:56;;;;;;;5.10;4.60;;;;;;;;;;5039490;28;20535;-74
2022/06/22 00:59:26;;;;;;;4.83;3.80;;;;;;;;;;5047635;28;20456;-74
2022/06/22 01:01:57;;;;;;;5.60;3.73;;;;;;;;;;5056321;28;20493;-73
2022/06/22 01:04:26;;;;;;;5.17;4.40;;;;;;;;;;5036870;28;20450;-74
2022/06/22 01:06:59;;;;;;;4.93;3.70;;;;;;;;;;5037079;28;20470;-72
2022/06/22 01:09:30;;;;;;;7.63;4.80;;;;;;;;;;5035006;28;20549;-74
2022/06/22 01:12:22;;;;;;;5.70;3.80;;;;;;;;;;5035580;28;20976;-74
2022/06/22 01:14:58;;;;;;;4.60;3.50;;;;;;;;;;5041332;28;20723;-74
2022/06/22 01:17:32;;;;;;;5.70;3.67;;;;;;;;;;5052584;28;20468;-75
2022/06/22 01:20:06;;;;;;;5.47;3.50;;;;;;;;;;5034551;28;20556;-74
2022/06/22 01:22:58;;;;;;;5.00;3.57;;;;;;;;;;5035085;28;20458;-74
2022/06/22 01:25:39;;;;;;;4.80;3.70;;;;;;;;;;5022952;28;20450;-74
2022/06/22 01:28:11;;;;;;;8.93;4.00;;;;;;;;;;5055364;28;20496;-74
2022/06/22 01:30:41;;;;;;;5.07;3.97;;;;;;;;;;5056132;28;20537;-75
2022/06/22 01:33:11;;;;;;;8.63;3.50;;;;;;;;;;5054541;28;20923;-74
2022/06/22 01:35:40;;;;;;;7.50;3.70;;;;;;;;;;5055663;28;20454;-75
2022/06/22 01:38:23;;;;;;;5.13;3.10;;;;;;;;;;5039917;28;20459;-75
2022/06/22 01:40:53;;;;;;;7.33;4.30;;;;;;;;;;5035482;28;20564;-75
2022/06/22 01:43:26;;;;;;;5.27;3.90;;;;;;;;;;5041864;28;20891;-74
2022/06/22 01:45:59;;;;;;;8.90;3.60;;;;;;;;;;5035097;28;20503;-75
2022/06/22 01:48:29;;;;;;;4.83;3.33;;;;;;;;;;5035569;28;20866;-75
2022/06/22 01:50:59;;;;;;;7.87;3.90;;;;;;;;;;5034500;28;20454;-74
2022/06/22 01:53:29;;;;;;;9.03;3.70;;;;;;;;;;5034527;28;21094;-75
2022/06/22 01:56:00;;;;;;;4.70;3.37;;;;;;;;;;5044829;28;20753;-75
2022/06/22 01:58:46;;;;;;;5.30;4.37;;;;;;;;;;5040153;28;20485;-75
2022/06/22 02:01:19;;;;;;;5.23;3.87;;;;;;;;;;5038330;28;20493;-74
2022/06/22 02:03:48;;;;;;;7.87;3.93;;;;;;;;;;5036208;28;20454;-74
2022/06/22 02:09:09;;;;;;;9.97;3.57;;;;;;;;;;5034470;28;20426;-74
2022/06/22 02:11:38;;;;;;;4.33;3.37;;;;;;;;;;5035828;28;20465;-74
2022/06/22 02:14:09;;;;;;;5.37;4.37;;;;;;;;;;5035003;28;20465;-74
2022/06/22 02:16:42;;;;;;;6.23;4.00;;;;;;;;;;5034464;28;20941;-74
2022/06/22 02:19:10;;;;;;;6.83;3.57;;;;;;;;;;5033951;28;20458;-74
2022/06/22 02:21:40;;;;;;;5.63;3.63;;;;;;;;;;5033652;28;20494;-74
2022/06/22 02:24:10;;;;;;;9.00;6.43;;;;;;;;;;5034494;28;20497;-74
2022/06/22 02:26:41;;;;;;;7.60;3.67;;;;;;;;;;5035377;28;20708;-74
2022/06/22 02:29:09;;;;;;;5.60;4.27;;;;;;;;;;5033853;28;20478;-74
2022/06/22 02:31:42;;;;;;;4.30;3.67;;;;;;;;;;5034530;28;20497;-74
2022/06/22 02:34:10;;;;;;;6.60;3.90;;;;;;;;;;5034101;28;20470;-74
2022/06/22 02:36:41;;;;;;;9.43;3.90;;;;;;;;;;5033574;28;20461;-73
2022/06/22 02:39:10;;;;;;;5.53;4.57;;;;;;;;;;5033688;28;20874;-74
2022/06/22 02:44:33;;;;;;;9.97;4.70;;;;;;;;;;5032899;28;20616;-74
2022/06/22 02:47:11;;;;;;;5.40;4.10;;;;;;;;;;5033471;28;20561;-74
2022/06/22 02:49:42;;;;;;;5.10;3.53;;;;;;;;;;5032939;28;20465;-75
2022/06/22 02:52:12;;;;;;;4.10;3.27;;;;;;;;;;5032861;28;20878;-75
2022/06/22 02:54:43;;;;;;;4.77;3.50;;;;;;;;;;5036129;28;20872;-74
2022/06/22 02:57:17;;;;;;;5.57;3.47;;;;;;;;;;5037263;28;20921;-75
2022/06/22 02:59:46;;;;;;;3.93;3.40;;;;;;;;;;5037492;28;20528;-75
2022/06/22 03:02:16;;;;;;;5.50;2.93;;;;;;;;;;5037879;28;20501;-74
2022/06/22 03:04:44;;;;;;;6.10;4.20;;;;;;;;;;5037154;28;20465;-74
2022/06/22 03:07:12;;;;;;;7.40;3.70;;;;;;;;;;5038135;28;20442;-75
2022/06/22 03:09:40;;;;;;;7.47;3.37;;;;;;;;;;5037487;28;20461;-74
2022/06/22 03:12:09;;;;;;;6.63;3.63;;;;;;;;;;5037022;28;20499;-75
2022/06/22 03:14:38;;;;;;;7.87;3.73;;;;;;;;;;5036915;28;20567;-74
2022/06/22 03:17:07;;;;;;;5.33;3.93;;;;;;;;;;5038731;28;20451;-75
2022/06/22 03:19:41;;;;;;;5.20;3.83;;;;;;;;;;5037372;28;20535;-75
2022/06/22 03:22:10;;;;;;;6.10;3.83;;;;;;;;;;5037034;28;21096;-75
2022/06/22 03:24:41;;;;;;;5.80;4.57;;;;;;;;;;5037789;28;20458;-75
2022/06/22 03:27:13;;;;;;;6.53;4.27;;;;;;;;;;5038746;28;20474;-73
2022/06/22 03:29:44;;;;;;;6.50;4.00;;;;;;;;;;5037687;28;20466;-75
2022/06/22 03:32:15;;;;;;;6.10;3.83;;;;;;;;;;5038440;28;20818;-75
2022/06/22 03:34:46;;;;;;;5.03;3.90;;;;;;;;;;5037574;28;20524;-75
2022/06/22 03:37:18;;;;;;;4.60;3.37;;;;;;;;;;5049870;28;20457;-75
2022/06/22 03:39:48;;;;;;;9.37;6.23;;;;;;;;;;5057720;28;20493;-73
2022/06/22 03:42:20;;;;;;;7.60;5.30;;;;;;;;;;5056645;28;20555;-74
2022/06/22 03:44:50;;;;;;;5.97;4.70;;;;;;;;;;5053824;28;20474;-74
2022/06/22 03:47:20;;;;;;;8.43;4.30;;;;;;;;;;5037452;28;20459;-75
2022/06/22 03:49:53;;;;;;;6.43;4.10;;;;;;;;;;5036667;28;20470;-75
2022/06/22 03:52:26;;;;;;;4.80;3.80;;;;;;;;;;5036395;28;20462;-75
2022/06/22 03:54:58;;;;;;;6.37;4.70;;;;;;;;;;5036856;28;20488;-75
2022/06/22 03:57:30;;;;;;;6.50;3.77;;;;;;;;;;5036674;28;20879;-75
2022/06/22 03:59:58;;;;;;;5.90;3.90;;;;;;;;;;5035702;28;20462;-74
2022/06/22 04:02:27;;;;;;;7.17;3.80;;;;;;;;;;5036082;28;20644;-74
2022/06/22 04:04:58;;;;;;;5.80;3.70;;;;;;;;;;5034946;28;20720;-74
2022/06/22 04:07:27;;;;;;;5.30;4.03;;;;;;;;;;5036041;28;20793;-75
2022/06/22 04:09:55;;;;;;;5.40;3.80;;;;;;;;;;5034916;28;20478;-74
2022/06/22 04:12:25;;;;;;;6.97;3.47;;;;;;;;;;5036061;28;20750;-75
2022/06/22 04:14:55;;;;;;;5.40;3.80;;;;;;;;;;5037242;28;20458;-75
2022/06/22 04:17:26;;;;;;;5.73;4.30;;;;;;;;;;5036785;28;20442;-75
2022/06/22 04:20:02;;;;;;;4.97;4.47;;;;;;;;;;5034862;28;20465;-74
2022/06/22 04:22:31;;;;;;;9.37;4.53;;;;;;;;;;5036173;28;20488;-74
2022/06/22 04:25:01;;;;;;;5.33;4.33;;;;;;;;;;5035867;28;20462;-75
2022/06/22 04:27:31;;;;;;;7.10;5.23;;;;;;;;;;5034246;28;20508;-75
2022/06/22 04:30:03;;;;;;;8.17;4.77;;;;;;;;;;5035083;28;20573;-74
2022/06/22 04:32:33;;;;;;;9.33;5.07;;;;;;;;;;5033883;28;20472;-75
2022/06/22 04:35:04;;;;;;;10.83;4.90;;;;;;;;;;5051424;28;20465;-75
2022/06/22 04:37:33;;;;;;;9.00;4.67;;;;;;;;;;5054716;28;20449;-74
2022/06/22 04:40:08;;;;;;;6.80;4.67;;;;;;;;;;5054853;28;20472;-73
2022/06/22 04:42:36;;;;;;;11.27;5.30;;;;;;;;;;5055461;28;20758;-74
2022/06/22 04:45:04;;;;;;;8.53;4.60;;;;;;;;;;5054071;28;20493;-75
2022/06/22 04:47:33;;;;;;;6.50;5.10;;;;;;;;;;5055472;28;20457;-75
2022/06/22 04:50:05;;;;;;;6.20;4.97;;;;;;;;;;5054409;28;20476;-75
2022/06/22 04:52:35;;;;;;;13.37;6.60;;;;;;;;;;5054340;28;20853;-74
2022/06/22 04:55:05;;;;;;;9.53;5.87;;;;;;;;;;5054567;28;20571;-75
2022/06/22 04:57:36;;;;;;;6.30;4.53;;;;;;;;;;5047119;28;20779;-74
2022/06/22 05:00:06;;;;;;;6.80;4.50;;;;;;;;;;5033276;28;20457;-74
2022/06/22 05:02:34;;;;;;;7.97;4.50;;;;;;;;;;5032754;28;20755;-74
2022/06/22 05:05:07;;;;;;;6.30;4.13;;;;;;;;;;5032224;28;20466;-75
2022/06/22 05:07:42;;;;;;;6.17;4.80;;;;;;;;;;5033577;28;20793;-74
2022/06/22 05:10:13;;;;;;;7.10;4.53;;;;;;;;;;5031454;28;20468;-75
2022/06/22 05:12:46;;;;;;;9.83;4.93;;;;;;;;;;5032881;28;20553;-75
2022/06/22 05:15:19;;;;;;;6.63;4.20;;;;;;;;;;5031958;28;20459;-75
2022/06/22 05:17:53;;;;;;;5.90;4.50;;;;;;;;;;5029673;28;20458;-75
2022/06/22 05:20:25;;;;;;;4.37;3.60;;;;;;;;;;5031751;28;20447;-75
2022/06/22 05:22:57;;;;;;;6.47;3.97;;;;;;;;;;5031921;28;20486;-74
2022/06/22 05:25:26;;;;;;;10.97;5.10;;;;;;;;;;5052825;28;20488;-75
2022/06/22 05:27:58;;;;;;;6.30;3.80;;;;;;;;;;5053021;28;20532;-75
2022/06/22 05:30:26;;;;;;;7.90;5.10;;;;;;;;;;5050942;28;20535;-74
2022/06/22 05:32:57;;;;;;;13.40;4.40;;;;;;;;;;5049010;28;20944;-74
2022/06/22 05:35:32;;;;;;;8.40;4.53;;;;;;;;;;5049821;28;20810;-74
2022/06/22 05:38:02;;;;;;;6.80;3.97;;;;;;;;;;5049645;28;20718;-74
2022/06/22 05:40:32;;;;;;;5.50;4.30;;;;;;;;;;5050452;28;20466;-74
2022/06/22 05:43:00;;;;;;;6.63;4.40;;;;;;;;;;5050870;28;20491;-75
2022/06/22 05:45:30;;;;;;;6.60;3.93;;;;;;;;;;5049257;28;20740;-76
2022/06/22 05:47:58;;;;;;;7.33;4.53;;;;;;;;;;5049579;28;20579;-74
2022/06/22 05:50:32;;;;;;;6.17;3.97;;;;;;;;;;5049001;28;20619;-74
2022/06/22 05:53:03;;;;;;;4.70;3.80;;;;;;;;;;5032145;28;20567;-75
2022/06/22 05:55:35;;;;;;;5.83;4.60;;;;;;;;;;5044573;28;20476;-76
2022/06/22 05:58:06;;;;;;;8.50;4.60;;;;;;;;;;5049098;28;20858;-75
2022/06/22 06:00:39;;;;;;;6.50;4.83;;;;;;;;;;5043746;28;20480;-75
2022/06/22 06:03:10;;;;;;;8.47;3.87;;;;;;;;;;5050568;28;20989;-74
2022/06/22 06:05:45;;;;;;;4.40;3.83;;;;;;;;;;5050177;28;20580;-75
2022/06/22 06:08:22;;;;;;;5.97;4.23;;;;;;;;;;5045651;28;20465;-75
2022/06/22 06:10:51;;;;;;;7.43;4.33;;;;;;;;;;5043988;28;20976;-75
2022/06/22 06:13:23;;;;;;;6.33;4.27;;;;;;;;;;5041208;28;20576;-74
2022/06/22 06:15:53;;;;;;;7.03;4.00;;;;;;;;;;5042896;28;20477;-73
2022/06/22 06:18:22;;;;;;;6.87;4.97;;;;;;;;;;5031088;28;20457;-74
2022/06/22 06:21:00;;;;;;;8.07;4.57;;;;;;;;;;5040318;28;20902;-76
2022/06/22 06:23:33;;;;;;;6.17;4.03;;;;;;;;;;5049214;28;20945;-75
2022/06/22 06:28:51;;;;;;;7.90;4.00;;;;;;;;;;5040578;28;20535;-74
2022/06/22 06:31:22;;;;;;;5.70;3.83;;;;;;;;;;5045690;28;20480;-74
2022/06/22 06:34:00;;;;;;;6.27;4.00;;;;;;;;;;5041479;28;20533;-76
2022/06/22 06:36:34;;;;;;;8.90;3.70;;;;;;;;;;5062501;28;20525;-76
2022/06/22 06:39:08;;;;;;;6.50;3.53;;;;;;;;;;5057567;28;20509;-74
2022/06/22 06:41:40;;;;;;;6.47;4.50;;;;;;;;;;5035791;28;20468;-74
2022/06/22 06:44:11;;;;;;;7.80;3.60;;;;;;;;;;5041266;28;20485;-75
2022/06/22 06:46:41;;;;;;;6.27;4.33;;;;;;;;;;5038409;28;20473;-75
2022/06/22 06:49:14;;;;;;;7.30;3.90;;;;;;;;;;5039576;28;20472;-74
2022/06/22 06:51:53;;;;;;;7.70;3.93;;;;;;;;;;5045069;28;20477;-74
2022/06/22 06:54:40;;;;;;;6.10;4.03;;;;;;;;;;5053838;28;20583;-73
2022/06/22 06:57:10;;;;;;;9.30;3.90;;;;;;;;;;5041242;28;20729;-74
2022/06/22 06:59:40;;;;;;;9.70;4.23;;;;;;;;;;5047063;28;20508;-75
2022/06/22 07:02:16;;;;;;;6.37;4.67;;;;;;;;;;5043385;28;20485;-75
2022/06/22 07:04:46;;;;;;;6.40;4.50;;;;;;;;;;5045664;28;20461;-73
2022/06/22 07:07:36;;;;;;;5.17;3.43;;;;;;;;;;5042572;28;20458;-75
2022/06/22 07:10:06;;;;;;;4.50;2.40;;;;;;;;;;5043534;28;20512;-75
2022/06/22 07:12:39;;;;;;;5.00;2.47;;;;;;;;;;5044577;28;20457;-76
2022/06/22 07:15:08;;;;;;;6.73;2.70;;;;;;;;;;5039240;28;20461;-75
2022/06/22 07:17:36;;;;;;;4.20;2.83;;;;;;;;;;5037548;28;20564;-75
2022/06/22 07:20:15;;;;;;;3.80;2.70;;;;;;;;;;5051200;28;20457;-74
2022/06/22 07:22:47;;;;;;;6.80;2.23;;;;;;;;;;5054227;28;20920;-75
2022/06/22 07:25:22;;;;;;;4.20;2.70;;;;;;;;;;5049927;28;20449;-74
2022/06/22 07:28:00;;;;;;;4.80;2.43;;;;;;;;;;5043414;28;20908;-74
2022/06/22 07:30:31;;;;;;;2.90;1.87;;;;;;;;;;5049630;28;20489;-75
2022/06/22 07:33:03;;;;;;;6.43;2.40;;;;;;;;;;5041869;28;20749;-75
2022/06/22 07:35:35;;;;;;;4.67;2.33;;;;;;;;;;5042008;28;20465;-74
2022/06/22 07:38:09;;;;;;;4.10;2.43;;;;;;;;;;5043836;28;21002;-75
2022/06/22 07:41:18;;;;;;;4.43;3.60;;;;;;;;;;5044256;28;20549;-73
2022/06/22 07:43:36;;;;;;;7.60;4.80;;;;;;;;;;5036944;28;20470;-74
2022/06/22 07:46:10;;;;;;;2.67;2.00;;;;;;;;;;5041952;28;20458;-74
2022/06/22 07:48:40;;;;;;;5.30;2.27;;;;;;;;;;5044578;28;20967;-74
2022/06/22 07:51:09;;;;;;;3.27;1.50;;;;;;;;;;5040012;28;20937;-76
2022/06/22 07:53:49;;;;;;;4.10;1.87;;;;;;;;;;5041513;28;20465;-74
2022/06/22 07:56:30;;;;;;;4.13;1.70;;;;;;;;;;5034010;28;21196;-74
2022/06/22 07:59:18;;;;;;;4.67;2.20;;;;;;;;;;5045898;28;20476;-73
2022/06/22 08:01:47;;;;;;;2.80;1.40;;;;;;;;;;5031210;28;20454;-74
2022/06/22 08:04:23;;;;;;;4.10;2.10;;;;;;;;;;5045177;28;20481;-73
2022/06/22 08:06:52;;;;;;;5.60;2.13;;;;;;;;;;5039474;28;20453;-75
2022/06/22 08:09:28;;;;;;;5.03;2.10;;;;;;;;;;5049825;28;20477;-74
2022/06/22 08:12:11;;;;;;;3.30;1.80;;;;;;;;;;5047913;28;20534;-75
2022/06/22 08:14:42;;;;;;;3.47;1.80;;;;;;;;;;5038307;28;20470;-74
2022/06/22 08:17:15;;;;;;;7.70;2.63;;;;;;;;;;5039171;28;20552;-74
2022/06/22 08:19:46;;;;;;;8.20;1.90;;;;;;;;;;5042791;28;20470;-74
2022/06/22 08:22:24;;;;;;;3.10;1.80;;;;;;;;;;5052513;28;20556;-75
2022/06/22 08:25:01;;;;;;;3.50;1.40;;;;;;;;;;5044613;28;20549;-73
2022/06/22 08:27:31;;;;;;;5.30;1.10;;;;;;;;;;5044816;28;20465;-73
2022/06/22 08:30:06;;;;;;;2.80;1.30;;;;;;;;;;5036047;28;20747;-75
2022/06/22 08:32:47;;;;;;;2.53;1.10;;;;;;;;;;5045330;28;20461;-75
2022/06/22 08:35:20;;;;;;;3.47;1.13;;;;;;;;;;5034005;28;20863;-74
2022/06/22 08:37:50;;;;;;;2.30;1.43;;;;;;;;;;5057371;28;20499;-74
2022/06/22 08:40:34;;;;;;;1.80;1.00;;;;;;;;;;5054365;28;20454;-75
2022/06/22 08:43:14;;;;;;;4.20;1.93;;;;;;;;;;5037613;28;20484;-74
2022/06/22 08:45:56;;;;;;;3.50;1.40;;;;;;;;;;5031438;28;20528;-74
2022/06/22 08:48:46;;;;;;;3.13;1.30;;;;;;;;;;5034758;28;21197;-74
2022/06/22 08:51:22;;;;;;;4.07;1.10;;;;;;;;;;5032677;28;20454;-73
2022/06/22 08:54:14;;;;;;;2.23;1.23;;;;;;;;;;5048220;28;20939;-73
2022/06/22 08:57:05;;;;;;;2.30;1.10;;;;;;;;;;5036948;28;20476;-73
2022/06/22 08:59:52;;;;;;;3.23;1.93;;;;;;;;;;5034047;28;20544;-71
2022/06/22 09:02:31;;;;;;;3.13;1.60;;;;;;;;;;5049448;28;20548;-73
2022/06/22 09:05:16;;;;;;;3.43;1.40;;;;;;;;;;5044262;28;20497;-73
2022/06/22 09:07:58;;;;;;;3.07;1.30;;;;;;;;;;5041771;28;20453;-73
2022/06/22 09:10:56;;;;;;;7.67;1.80;;;;;;;;;;5050429;28;20489;-73
2022/06/22 09:13:53;;;;;;;3.30;1.30;;;;;;;;;;5027409;28;20449;-73
2022/06/22 09:16:33;;;;;;;5.53;1.60;;;;;;;;;;5041138;28;20454;-75
2022/06/22 09:19:27;;;;;;;22.70;17.33;;;;;;;;;;5043720;28;20456;-73
2022/06/22 09:22:05;;;;;;;3.03;2.03;;;;;;;;;;5026186;28;21022;-74
2022/06/22 09:24:46;;;;;;;3.60;1.40;;;;;;;;;;5040901;28;20808;-73
2022/06/22 09:27:17;;;;;;;3.30;1.40;;;;;;;;;;5032909;28;20473;-74
2022/06/22 09:30:02;;;;;;;4.33;1.40;;;;;;;;;;5039294;28;20886;-73
2022/06/22 09:32:56;;;;;;;7.90;1.87;;;;;;;;;;5044570;28;20476;-73
2022/06/22 09:39:14;;;;;;;3.93;1.43;;;;;;;;;;5038137;28;20484;-73
2022/06/22 09:41:49;;;;;;;4.03;1.67;;;;;;;;;;4988494;28;20502;-74
2022/06/22 09:44:34;;;;;;;4.40;2.50;;;;;;;;;;4985517;28;20492;-74
2022/06/22 09:47:30;;;;;;;3.93;1.70;;;;;;;;;;5032148;28;20632;-74
2022/06/22 09:50:16;;;;;;;4.23;1.60;;;;;;;;;;5034111;28;20527;-74
2022/06/22 09:52:59;;;;;;;4.40;1.20;;;;;;;;;;5036904;28;20761;-74
2022/06/22 09:58:48;;;;;;;2.77;1.50;;;;;;;;;;5032805;28;20492;-74
2022/06/22 10:01:23;;;;;;;3.40;1.50;;;;;;;;;;5030835;28;20466;-74
2022/06/22 10:04:09;;;;;;;6.47;1.83;;;;;;;;;;5043072;28;20489;-74
2022/06/22 10:06:45;;;;;;;5.03;1.50;;;;;;;;;;5018681;28;20525;-72
2022/06/22 10:09:25;;;;;;;3.20;1.63;;;;;;;;;;5032195;28;20484;-73
2022/06/22 10:11:54;;;;;;;4.70;1.57;;;;;;;;;;5048810;28;20864;-74
2022/06/22 10:14:48;;;;;;;4.57;1.70;;;;;;;;;;5040287;28;20466;-75
2022/06/22 10:17:35;;;;;;;4.23;1.63;;;;;;;;;;5038115;28;20874;-73
2022/06/22 10:20:18;;;;;;;3.47;1.53;;;;;;;;;;5032746;28;20470;-74
2022/06/22 10:22:53;;;;;;;4.13;1.67;;;;;;;;;;5002419;28;20488;-74
2022/06/22 10:25:32;;;;;;;5.40;2.67;;;;;;;;;;5032261;28;20468;-75
2022/06/22 10:28:16;;;;;;;3.77;1.30;;;;;;;;;;5047921;28;20480;-72
2022/06/22 10:30:53;;;;;;;5.50;2.27;;;;;;;;;;5030910;28;20489;-74
2022/06/22 10:33:29;;;;;;;3.00;1.80;;;;;;;;;;5031395;28;20881;-75
2022/06/22 10:36:16;;;;;;;3.23;2.00;;;;;;;;;;5037182;28;20898;-75
2022/06/22 10:39:05;;;;;;;4.77;1.90;;;;;;;;;;5032470;28;20457;-73
2022/06/22 10:47:44;;;;;;;3.23;2.10;;;;;;;;;;5038403;28;20907;-74
2022/06/22 10:50:24;;;;;;;5.23;2.20;;;;;;;;;;5038151;28;20527;-74
2022/06/22 10:53:02;;;;;;;4.60;2.10;;;;;;;;;;5050474;28;20503;-74
2022/06/22 10:55:44;;;;;;;6.03;3.00;;;;;;;;;;5042034;28;20789;-74
2022/06/22 10:58:29;;;;;;;5.80;3.40;;;;;;;;;;5031401;28;20588;-75
2022/06/22 11:01:10;;;;;;;4.43;2.10;;;;;;;;;;5045120;28;20464;-75
2022/06/22 11:04:14;;;;;;;5.60;4.17;;;;;;;;;;5031543;28;20482;-74
2022/06/22 11:06:59;;;;;;;4.87;2.07;;;;;;;;;;4968428;28;20507;-73
2022/06/22 11:09:48;;;;;;;4.40;2.40;;;;;;;;;;4961020;28;20593;-74
2022/06/22 11:12:29;;;;;;;6.03;2.60;;;;;;;;;;5017552;28;20496;-73
2022/06/22 11:15:21;;;;;;;4.20;2.53;;;;;;;;;;5037935;28;20473;-75
2022/06/22 11:18:11;;;;;;;7.23;2.00;;;;;;;;;;5053743;28;20450;-74
2022/06/22 11:20:52;;;;;;;4.57;2.23;;;;;;;;;;5046618;28;20520;-74
2022/06/22 11:23:27;;;;;;;5.10;2.80;;;;;;;;;;5036074;28;20482;-75
2022/06/22 11:31:59;;;;;;;4.90;2.00;;;;;;;;;;5018396;28;20522;-72
2022/06/22 11:34:45;;;;;;;6.30;2.67;;;;;;;;;;5041968;28;20539;-74
2022/06/22 11:37:25;;;;;;;11.23;7.60;;;;;;;;;;5029560;28;20472;-73
2022/06/22 11:40:22;;;;;;;3.90;2.37;;;;;;;;;;5042438;28;20824;-71
2022/06/22 11:43:07;;;;;;;8.90;2.60;;;;;;;;;;5034454;28;20472;-72
2022/06/22 11:45:59;;;;;;;4.83;2.50;;;;;;;;;;5047897;28;20476;-75
2022/06/22 11:48:45;;;;;;;3.90;2.57;;;;;;;;;;5038296;28;21164;-74
2022/06/22 11:51:38;;;;;;;5.53;2.40;;;;;;;;;;5043329;28;20469;-73
2022/06/22 11:54:39;;;;;;;6.50;4.03;;;;;;;;;;5045027;28;20838;-75
2022/06/22 11:57:24;;;;;;;7.83;2.33;;;;;;;;;;5039117;28;20942;-74
2022/06/22 12:00:23;;;;;;;;;;;;;;;;;;;;;
2022/06/22 12:03:10;;;;;;;3.70;1.90;;;;;;;;;;5037558;28;20458;-75
2022/06/22 12:05:45;;;;;;;6.17;1.93;;;;;;;;;;5037634;28;20466;-75
2022/06/22 12:08:41;;;;;;;6.37;2.90;;;;;;;;;;5036902;28;20458;-74
2022/06/22 12:11:22;;;;;;;4.50;2.40;;;;;;;;;;5035586;28;20502;-74
2022/06/22 12:17:03;;;;;;;8.20;2.37;;;;;;;;;;5048356;28;20606;-74
2022/06/22 12:19:40;;;;;;;5.60;1.93;;;;;;;;;;5038013;28;20473;-73
2022/06/22 12:22:20;;;;;;;3.80;2.20;;;;;;;;;;5038487;28;20470;-75
2022/06/22 12:24:58;;;;;;;3.90;2.23;;;;;;;;;;5039516;28;20856;-73
2022/06/22 12:27:30;;;;;;;3.40;2.13;;;;;;;;;;5040880;28;21093;-74
2022/06/22 12:30:15;;;;;;;5.40;2.20;;;;;;;;;;5039058;28;20945;-74
2022/06/22 12:32:51;;;;;;;5.73;2.30;;;;;;;;;;5040911;28;20486;-75
2022/06/22 12:35:29;;;;;;;5.47;2.30;;;;;;;;;;5035687;28;20548;-75
2022/06/22 12:38:03;;;;;;;4.63;2.63;;;;;;;;;;5036320;28;20501;-75
2022/06/22 12:40:37;;;;;;;5.53;2.00;;;;;;;;;;5035419;28;20478;-76
2022/06/22 12:43:19;;;;;;;7.40;2.33;;;;;;;;;;5036542;28;20469;-76
2022/06/22 12:45:55;;;;;;;4.07;2.30;;;;;;;;;;5043785;28;20473;-76
2022/06/22 12:48:45;;;;;;;8.40;2.40;;;;;;;;;;5045520;28;20462;-75
2022/06/22 12:51:23;;;;;;;4.53;1.83;;;;;;;;;;5038867;28;20560;-76
2022/06/22 12:53:55;;;;;;;6.53;2.20;;;;;;;;;;5034260;28;20476;-75
2022/06/22 12:56:28;;;;;;;6.87;2.70;;;;;;;;;;5035795;28;20569;-75
2022/06/22 12:59:15;;;;;;;3.97;2.30;;;;;;;;;;5041039;28;20575;-73
2022/06/22 13:01:51;;;;;;;5.00;3.00;;;;;;;;;;5047041;28;20469;-76
2022/06/22 13:04:25;;;;;;;5.00;3.23;;;;;;;;;;5038677;28;20863;-74
2022/06/22 13:06:56;;;;;;;4.83;2.33;;;;;;;;;;5042670;28;20783;-74
2022/06/22 13:09:25;;;;;;;5.17;3.13;;;;;;;;;;5039942;28;20458;-75
2022/06/22 13:11:53;;;;;;;4.10;2.40;;;;;;;;;;5039604;28;20470;-75
2022/06/22 13:14:29;;;;;;;3.90;2.20;;;;;;;;;;5033818;28;20546;-76
2022/06/22 13:17:04;;;;;;;5.53;2.23;;;;;;;;;;5043194;28;20919;-74
2022/06/22 13:19:37;;;;;;;4.53;2.20;;;;;;;;;;5032234;28;20515;-73
2022/06/22 13:22:09;;;;;;;7.50;2.47;;;;;;;;;;5039412;28;20487;-75
2022/06/22 13:24:41;;;;;;;5.70;2.87;;;;;;;;;;5045124;28;21134;-73
2022/06/22 13:27:18;;;;;;;5.93;2.70;;;;;;;;;;5047196;28;20485;-75
2022/06/22 13:30:23;;;;;;;6.90;2.20;;;;;;;;;;5044705;28;20501;-73
2022/06/22 13:33:00;;;;;;;4.13;2.40;;;;;;;;;;5041587;28;20503;-75
2022/06/22 13:35:31;;;;;;;6.87;2.80;;;;;;;;;;5033680;28;20520;-72
2022/06/22 13:38:14;;;;;;;6.53;2.87;;;;;;;;;;5036812;28;20489;-73
2022/06/22 13:40:58;;;;;;;5.40;2.63;;;;;;;;;;5032813;28;20458;-75
2022/06/22 13:46:15;;;;;;;6.30;3.30;;;;;;;;;;5055584;28;20936;-74
2022/06/22 13:49:02;;;;;;;4.17;2.90;;;;;;;;;;5064878;28;20463;-75
2022/06/22 13:51:44;;;;;;;4.43;2.60;;;;;;;;;;5055295;28;20453;-74
2022/06/22 13:54:31;;;;;;;4.40;2.40;;;;;;;;;;5059033;28;20519;-74
2022/06/22 13:57:07;;;;;;;6.10;2.60;;;;;;;;;;5058251;28;20454;-75
2022/06/22 13:59:40;;;;;;;7.77;3.00;;;;;;;;;;5056693;28;20527;-74
2022/06/22 14:02:23;;;;;;;7.20;3.60;;;;;;;;;;5054774;28;20560;-75
2022/06/22 14:04:56;;;;;;;7.50;3.27;;;;;;;;;;5057242;28;20488;-75
2022/06/22 14:07:29;;;;;;;4.93;2.63;;;;;;;;;;5053908;28;20437;-74
2022/06/22 14:10:06;;;;;;;7.20;3.33;;;;;;;;;;5056025;28;20460;-75
2022/06/22 14:12:41;;;;;;;6.10;2.40;;;;;;;;;;5051215;28;20460;-74
2022/06/22 14:15:18;;;;;;;6.33;2.97;;;;;;;;;;5059201;28;20463;-74
2022/06/22 14:17:47;;;;;;;7.53;3.17;;;;;;;;;;5057884;28;20754;-74
2022/06/22 14:20:17;;;;;;;6.37;3.07;;;;;;;;;;5062401;28;20568;-73
2022/06/22 14:22:49;;;;;;;6.20;3.20;;;;;;;;;;5057616;28;20586;-75
2022/06/22 14:25:19;;;;;;;12.23;4.00;;;;;;;;;;5069138;28;20906;-74
2022/06/22 14:27:51;;;;;;;6.00;3.17;;;;;;;;;;5071608;28;20540;-74
2022/06/22 14:30:22;;;;;;;3.67;2.63;;;;;;;;;;5072143;28;20597;-74
2022/06/22 14:32:59;;;;;;;4.07;2.00;;;;;;;;;;5052003;28;20878;-73
2022/06/22 14:35:42;;;;;;;4.43;2.90;;;;;;;;;;5051325;28;20444;-72
2022/06/22 14:38:24;;;;;;;9.37;2.93;;;;;;;;;;5051760;28;20449;-73
2022/06/22 14:41:13;;;;;;;6.10;2.90;;;;;;;;;;5051240;28;20445;-73
2022/06/22 14:43:48;;;;;;;3.80;2.20;;;;;;;;;;5071930;28;20459;-73
2022/06/22 14:46:31;;;;;;;3.97;2.50;;;;;;;;;;5071680;28;20479;-73
2022/06/22 14:49:10;;;;;;;7.10;2.60;;;;;;;;;;5071806;28;20444;-74
2022/06/22 14:51:44;;;;;;;3.73;2.20;;;;;;;;;;5058424;28;20712;-74
2022/06/22 14:54:20;;;;;;;4.37;2.00;;;;;;;;;;5060652;28;20554;-74
2022/06/22 14:56:54;;;;;;;4.07;1.90;;;;;;;;;;5054438;28;20456;-75
2022/06/22 14:59:29;;;;;;;4.73;2.43;;;;;;;;;;5057188;28;20451;-74
2022/06/22 15:01:59;;;;;;;6.13;2.93;;;;;;;;;;5065758;28;20478;-73
2022/06/22 15:04:40;;;;;;;4.00;2.00;;;;;;;;;;5067497;28;20475;-74
2022/06/22 15:07:15;;;;;;;4.90;1.90;;;;;;;;;;5074591;28;20559;-74
2022/06/22 15:09:47;;;;;;;3.80;1.63;;;;;;;;;;5059941;28;20875;-74
2022/06/22 15:15:20;;;;;;;3.37;1.70;;;;;;;;;;5058899;28;20424;-75
2022/06/22 15:17:59;;;;;;;6.43;2.60;;;;;;;;;;5066873;28;20449;-74
2022/06/22 15:20:33;;;;;;;3.07;1.50;;;;;;;;;;5068357;28;20555;-74
2022/06/22 15:23:08;;;;;;;5.93;2.10;;;;;;;;;;5066642;28;20899;-74
2022/06/22 15:25:39;;;;;;;3.70;2.17;;;;;;;;;;5066057;28;20499;-74
2022/06/22 15:28:14;;;;;;;6.13;1.30;;;;;;;;;;5071957;28;20543;-73
2022/06/22 15:30:45;;;;;;;5.53;1.60;;;;;;;;;;5067734;28;20472;-74
2022/06/22 15:33:17;;;;;;;2.47;1.37;;;;;;;;;;5059289;28;20511;-73
2022/06/22 15:35:52;;;;;;;3.70;1.33;;;;;;;;;;5054591;28;20456;-75
2022/06/22 15:38:23;;;;;;;4.87;2.00;;;;;;;;;;5059063;28;20533;-74
2022/06/22 15:41:00;;;;;;;4.10;1.80;;;;;;;;;;5062915;28;20513;-74
2022/06/22 15:43:50;;;;;;;3.97;1.60;;;;;;;;;;5063857;28;20902;-75
2022/06/22 15:46:28;;;;;;;4.17;1.87;;;;;;;;;;5055178;28;20554;-74
2022/06/22 15:49:04;;;;;;;4.17;1.90;;;;;;;;;;5069378;28;20461;-73
2022/06/22 15:51:40;;;;;;;3.60;1.70;;;;;;;;;;5073069;28;20941;-74
2022/06/22 15:54:17;;;;;;;2.50;1.43;;;;;;;;;;5064147;28;20726;-74
2022/06/22 15:56:54;;;;;;;4.80;1.87;;;;;;;;;;5054363;28;20487;-75
2022/06/22 15:59:26;;;;;;;4.23;1.33;;;;;;;;;;5067044;28;20742;-74
2022/06/22 16:01:57;;;;;;;3.70;1.50;;;;;;;;;;5066447;28;20464;-74
2022/06/22 16:04:37;;;;;;;2.70;1.43;;;;;;;;;;5059409;28;20523;-74
2022/06/22 16:07:15;;;;;;;3.27;1.70;;;;;;;;;;5058298;28;20457;-75
2022/06/22 16:09:55;;;;;;;2.70;1.33;;;;;;;;;;5053615;28;20469;-74